sensor_id;sensor_type;location;lat;lon;timestamp;P1;durP1;ratioP1;P2;durP2;ratioP2
72974;SDS011;61166;54.228;37.632;2022-07-29T00:00:18;3.83;;;1.63;;
72974;SDS011;61166;54.228;37.632;2022-07-29T00:02:44;4.88;;;1.58;;
72974;SDS011;61166;54.228;37.632;2022-07-29T00:05:09;3.43;;;1.60;;
72974;SDS011;61166;54.228;37.632;2022-07-29T00:07:38;3.00;;;1.55;;
72974;SDS011;61166;54.228;37.632;2022-07-29T00:10:04;2.77;;;1.67;;
72974;SDS011;61166;54.228;37.632;2022-07-29T00:12:29;3.22;;;1.90;;
72974;SDS011;61166;54.228;37.632;2022-07-29T00:14:55;4.17;;;1.50;;
72974;SDS011;61166;54.228;37.632;2022-07-29T00:17:22;5.80;;;1.67;;
72974;SDS011;61166;54.228;37.632;2022-07-29T00:19:48;3.95;;;1.75;;
72974;SDS011;61166;54.228;37.632;2022-07-29T00:22:13;4.40;;;1.80;;
72974;SDS011;61166;54.228;37.632;2022-07-29T00:24:40;5.25;;;1.77;;
72974;SDS011;61166;54.228;37.632;2022-07-29T00:27:05;2.70;;;1.63;;
72974;SDS011;61166;54.228;37.632;2022-07-29T00:29:32;3.83;;;1.48;;
72974;SDS011;61166;54.228;37.632;2022-07-29T00:31:57;3.73;;;1.70;;
72974;SDS011;61166;54.228;37.632;2022-07-29T00:34:22;3.60;;;1.80;;
72974;SDS011;61166;54.228;37.632;2022-07-29T00:37:06;6.43;;;1.80;;
72974;SDS011;61166;54.228;37.632;2022-07-29T00:39:32;5.63;;;1.70;;
72974;SDS011;61166;54.228;37.632;2022-07-29T00:41:57;3.30;;;1.70;;
72974;SDS011;61166;54.228;37.632;2022-07-29T00:44:23;6.23;;;1.80;;
72974;SDS011;61166;54.228;37.632;2022-07-29T00:46:48;3.83;;;1.40;;
72974;SDS011;61166;54.228;37.632;2022-07-29T00:49:13;2.60;;;1.50;;
72974;SDS011;61166;54.228;37.632;2022-07-29T00:51:39;4.83;;;1.70;;
72974;SDS011;61166;54.228;37.632;2022-07-29T00:54:05;3.05;;;1.73;;
72974;SDS011;61166;54.228;37.632;2022-07-29T00:56:31;4.70;;;1.70;;
72974;SDS011;61166;54.228;37.632;2022-07-29T00:58:57;3.72;;;1.95;;
72974;SDS011;61166;54.228;37.632;2022-07-29T01:01:23;3.63;;;2.30;;
72974;SDS011;61166;54.228;37.632;2022-07-29T01:03:49;3.47;;;1.50;;
72974;SDS011;61166;54.228;37.632;2022-07-29T01:06:15;3.10;;;1.70;;
72974;SDS011;61166;54.228;37.632;2022-07-29T01:08:42;5.45;;;2.08;;
72974;SDS011;61166;54.228;37.632;2022-07-29T01:11:08;3.42;;;2.10;;
72974;SDS011;61166;54.228;37.632;2022-07-29T01:13:34;4.07;;;1.70;;
72974;SDS011;61166;54.228;37.632;2022-07-29T01:16:02;4.50;;;2.00;;
72974;SDS011;61166;54.228;37.632;2022-07-29T01:18:34;3.22;;;1.63;;
72974;SDS011;61166;54.228;37.632;2022-07-29T01:27:20;4.80;;;1.90;;
72974;SDS011;61166;54.228;37.632;2022-07-29T01:30:09;5.82;;;2.17;;
72974;SDS011;61166;54.228;37.632;2022-07-29T01:32:35;4.10;;;2.17;;
72974;SDS011;61166;54.228;37.632;2022-07-29T01:35:18;4.25;;;1.95;;
72974;SDS011;61166;54.228;37.632;2022-07-29T01:37:57;3.78;;;2.00;;
72974;SDS011;61166;54.228;37.632;2022-07-29T01:40:34;5.53;;;1.95;;
72974;SDS011;61166;54.228;37.632;2022-07-29T01:46:08;3.50;;;1.70;;
72974;SDS011;61166;54.228;37.632;2022-07-29T01:51:07;3.73;;;2.30;;
72974;SDS011;61166;54.228;37.632;2022-07-29T01:53:48;5.50;;;2.20;;
72974;SDS011;61166;54.228;37.632;2022-07-29T01:56:19;7.85;;;2.28;;
72974;SDS011;61166;54.228;37.632;2022-07-29T01:58:48;6.22;;;2.47;;
72974;SDS011;61166;54.228;37.632;2022-07-29T02:01:14;5.38;;;2.30;;
72974;SDS011;61166;54.228;37.632;2022-07-29T02:03:42;3.73;;;2.07;;
72974;SDS011;61166;54.228;37.632;2022-07-29T02:06:09;4.07;;;2.03;;
72974;SDS011;61166;54.228;37.632;2022-07-29T02:08:38;3.75;;;2.30;;
72974;SDS011;61166;54.228;37.632;2022-07-29T02:11:04;4.18;;;2.20;;
72974;SDS011;61166;54.228;37.632;2022-07-29T02:13:32;6.30;;;2.60;;
72974;SDS011;61166;54.228;37.632;2022-07-29T02:16:00;4.57;;;2.80;;
72974;SDS011;61166;54.228;37.632;2022-07-29T02:18:30;3.83;;;2.60;;
72974;SDS011;61166;54.228;37.632;2022-07-29T02:20:56;6.35;;;2.90;;
72974;SDS011;61166;54.228;37.632;2022-07-29T02:23:24;3.50;;;2.45;;
72974;SDS011;61166;54.228;37.632;2022-07-29T02:25:55;3.33;;;2.90;;
72974;SDS011;61166;54.228;37.632;2022-07-29T02:28:22;7.13;;;2.80;;
72974;SDS011;61166;54.228;37.632;2022-07-29T02:30:51;5.10;;;2.80;;
72974;SDS011;61166;54.228;37.632;2022-07-29T02:33:18;4.13;;;3.72;;
72974;SDS011;61166;54.228;37.632;2022-07-29T02:35:46;6.20;;;3.53;;
72974;SDS011;61166;54.228;37.632;2022-07-29T02:38:13;5.18;;;4.03;;
72974;SDS011;61166;54.228;37.632;2022-07-29T02:41:12;5.53;;;3.73;;
72974;SDS011;61166;54.228;37.632;2022-07-29T02:43:41;6.90;;;4.03;;
72974;SDS011;61166;54.228;37.632;2022-07-29T02:46:11;8.35;;;4.72;;
72974;SDS011;61166;54.228;37.632;2022-07-29T02:48:46;9.00;;;5.20;;
72974;SDS011;61166;54.228;37.632;2022-07-29T02:51:23;5.97;;;5.47;;
72974;SDS011;61166;54.228;37.632;2022-07-29T02:53:53;5.43;;;4.93;;
72974;SDS011;61166;54.228;37.632;2022-07-29T02:56:23;6.13;;;5.40;;
72974;SDS011;61166;54.228;37.632;2022-07-29T02:58:57;6.80;;;6.05;;
72974;SDS011;61166;54.228;37.632;2022-07-29T03:01:25;5.85;;;5.35;;
72974;SDS011;61166;54.228;37.632;2022-07-29T03:03:55;7.60;;;6.88;;
72974;SDS011;61166;54.228;37.632;2022-07-29T03:06:22;5.87;;;5.33;;
72974;SDS011;61166;54.228;37.632;2022-07-29T03:08:49;7.05;;;6.35;;
72974;SDS011;61166;54.228;37.632;2022-07-29T03:11:15;7.93;;;5.50;;
72974;SDS011;61166;54.228;37.632;2022-07-29T03:13:42;6.68;;;6.07;;
72974;SDS011;61166;54.228;37.632;2022-07-29T03:16:09;7.00;;;6.50;;
72974;SDS011;61166;54.228;37.632;2022-07-29T03:18:35;7.27;;;6.77;;
72974;SDS011;61166;54.228;37.632;2022-07-29T03:21:02;7.05;;;6.55;;
72974;SDS011;61166;54.228;37.632;2022-07-29T03:23:29;8.10;;;7.40;;
72974;SDS011;61166;54.228;37.632;2022-07-29T03:25:54;9.30;;;8.15;;
72974;SDS011;61166;54.228;37.632;2022-07-29T03:28:20;10.37;;;7.63;;
72974;SDS011;61166;54.228;37.632;2022-07-29T03:30:46;10.00;;;9.10;;
72974;SDS011;61166;54.228;37.632;2022-07-29T03:33:11;11.48;;;9.55;;
72974;SDS011;61166;54.228;37.632;2022-07-29T03:35:37;11.67;;;10.90;;
72974;SDS011;61166;54.228;37.632;2022-07-29T03:38:02;10.40;;;9.50;;
72974;SDS011;61166;54.228;37.632;2022-07-29T03:40:49;12.30;;;11.00;;
72974;SDS011;61166;54.228;37.632;2022-07-29T03:43:16;12.30;;;11.25;;
72974;SDS011;61166;54.228;37.632;2022-07-29T03:45:44;12.32;;;11.20;;
72974;SDS011;61166;54.228;37.632;2022-07-29T03:48:12;10.03;;;9.23;;
72974;SDS011;61166;54.228;37.632;2022-07-29T03:50:40;11.07;;;10.40;;
72974;SDS011;61166;54.228;37.632;2022-07-29T03:53:06;13.32;;;12.45;;
72974;SDS011;61166;54.228;37.632;2022-07-29T03:55:33;12.77;;;11.68;;
72974;SDS011;61166;54.228;37.632;2022-07-29T03:58:05;13.00;;;12.10;;
72974;SDS011;61166;54.228;37.632;2022-07-29T04:00:32;13.35;;;12.43;;
72974;SDS011;61166;54.228;37.632;2022-07-29T04:02:59;14.10;;;13.23;;
72974;SDS011;61166;54.228;37.632;2022-07-29T04:05:25;14.82;;;13.95;;
72974;SDS011;61166;54.228;37.632;2022-07-29T04:07:50;16.33;;;15.40;;
72974;SDS011;61166;54.228;37.632;2022-07-29T04:10:16;12.97;;;11.93;;
72974;SDS011;61166;54.228;37.632;2022-07-29T04:12:42;15.55;;;14.50;;
72974;SDS011;61166;54.228;37.632;2022-07-29T04:15:07;13.43;;;12.40;;
72974;SDS011;61166;54.228;37.632;2022-07-29T04:17:33;12.82;;;11.93;;
72974;SDS011;61166;54.228;37.632;2022-07-29T04:19:59;11.70;;;10.93;;
72974;SDS011;61166;54.228;37.632;2022-07-29T04:22:24;12.87;;;11.90;;
72974;SDS011;61166;54.228;37.632;2022-07-29T04:24:50;13.33;;;12.43;;
72974;SDS011;61166;54.228;37.632;2022-07-29T04:27:15;9.80;;;8.97;;
72974;SDS011;61166;54.228;37.632;2022-07-29T04:29:40;9.57;;;8.75;;
72974;SDS011;61166;54.228;37.632;2022-07-29T04:32:06;14.30;;;13.23;;
72974;SDS011;61166;54.228;37.632;2022-07-29T04:34:31;11.37;;;10.47;;
72974;SDS011;61166;54.228;37.632;2022-07-29T04:36:57;12.37;;;11.43;;
72974;SDS011;61166;54.228;37.632;2022-07-29T04:39:22;9.13;;;8.43;;
72974;SDS011;61166;54.228;37.632;2022-07-29T04:41:47;7.20;;;6.57;;
72974;SDS011;61166;54.228;37.632;2022-07-29T04:44:14;6.88;;;6.28;;
72974;SDS011;61166;54.228;37.632;2022-07-29T04:46:39;6.60;;;5.90;;
72974;SDS011;61166;54.228;37.632;2022-07-29T04:49:04;8.37;;;7.70;;
72974;SDS011;61166;54.228;37.632;2022-07-29T04:51:30;14.30;;;13.40;;
72974;SDS011;61166;54.228;37.632;2022-07-29T04:53:56;14.65;;;13.50;;
72974;SDS011;61166;54.228;37.632;2022-07-29T04:56:21;13.23;;;12.53;;
72974;SDS011;61166;54.228;37.632;2022-07-29T04:58:47;8.23;;;7.63;;
72974;SDS011;61166;54.228;37.632;2022-07-29T05:01:12;13.48;;;12.52;;
72974;SDS011;61166;54.228;37.632;2022-07-29T05:03:39;11.52;;;10.80;;
72974;SDS011;61166;54.228;37.632;2022-07-29T05:06:04;10.37;;;9.50;;
72974;SDS011;61166;54.228;37.632;2022-07-29T05:08:30;10.10;;;9.33;;
72974;SDS011;61166;54.228;37.632;2022-07-29T05:10:55;14.57;;;13.57;;
72974;SDS011;61166;54.228;37.632;2022-07-29T05:13:20;14.33;;;13.37;;
72974;SDS011;61166;54.228;37.632;2022-07-29T05:15:46;15.02;;;14.23;;
72974;SDS011;61166;54.228;37.632;2022-07-29T05:18:11;14.23;;;13.33;;
72974;SDS011;61166;54.228;37.632;2022-07-29T05:20:37;16.03;;;14.97;;
72974;SDS011;61166;54.228;37.632;2022-07-29T05:23:02;16.20;;;15.07;;
72974;SDS011;61166;54.228;37.632;2022-07-29T05:25:28;16.88;;;15.98;;
72974;SDS011;61166;54.228;37.632;2022-07-29T05:27:54;15.63;;;14.70;;
72974;SDS011;61166;54.228;37.632;2022-07-29T05:30:21;12.10;;;11.40;;
72974;SDS011;61166;54.228;37.632;2022-07-29T05:32:47;17.13;;;16.13;;
72974;SDS011;61166;54.228;37.632;2022-07-29T05:35:13;17.00;;;16.10;;
72974;SDS011;61166;54.228;37.632;2022-07-29T05:37:39;12.43;;;11.63;;
72974;SDS011;61166;54.228;37.632;2022-07-29T05:40:05;16.85;;;15.95;;
72974;SDS011;61166;54.228;37.632;2022-07-29T05:42:31;15.95;;;15.05;;
72974;SDS011;61166;54.228;37.632;2022-07-29T05:44:56;16.67;;;15.63;;
72974;SDS011;61166;54.228;37.632;2022-07-29T05:47:22;14.67;;;13.57;;
72974;SDS011;61166;54.228;37.632;2022-07-29T05:49:48;13.98;;;12.80;;
72974;SDS011;61166;54.228;37.632;2022-07-29T05:52:13;15.30;;;13.77;;
72974;SDS011;61166;54.228;37.632;2022-07-29T05:54:39;11.73;;;10.90;;
72974;SDS011;61166;54.228;37.632;2022-07-29T05:57:05;9.75;;;9.07;;
72974;SDS011;61166;54.228;37.632;2022-07-29T05:59:31;9.57;;;8.87;;
72974;SDS011;61166;54.228;37.632;2022-07-29T06:02:00;9.77;;;8.98;;
72974;SDS011;61166;54.228;37.632;2022-07-29T06:04:25;12.20;;;11.20;;
72974;SDS011;61166;54.228;37.632;2022-07-29T06:06:51;12.13;;;11.33;;
72974;SDS011;61166;54.228;37.632;2022-07-29T06:09:16;12.00;;;11.30;;
72974;SDS011;61166;54.228;37.632;2022-07-29T06:11:42;11.07;;;10.32;;
72974;SDS011;61166;54.228;37.632;2022-07-29T06:14:07;13.73;;;12.73;;
72974;SDS011;61166;54.228;37.632;2022-07-29T06:16:33;11.47;;;10.57;;
72974;SDS011;61166;54.228;37.632;2022-07-29T06:18:58;12.83;;;12.00;;
72974;SDS011;61166;54.228;37.632;2022-07-29T06:21:23;12.68;;;11.85;;
72974;SDS011;61166;54.228;37.632;2022-07-29T06:23:49;10.77;;;10.00;;
72974;SDS011;61166;54.228;37.632;2022-07-29T06:26:14;11.93;;;11.20;;
72974;SDS011;61166;54.228;37.632;2022-07-29T06:28:39;11.37;;;10.63;;
72974;SDS011;61166;54.228;37.632;2022-07-29T06:31:05;11.93;;;11.03;;
72974;SDS011;61166;54.228;37.632;2022-07-29T06:33:30;12.45;;;11.73;;
72974;SDS011;61166;54.228;37.632;2022-07-29T06:35:56;11.90;;;11.20;;
72974;SDS011;61166;54.228;37.632;2022-07-29T06:38:21;11.80;;;11.00;;
72974;SDS011;61166;54.228;37.632;2022-07-29T06:40:47;12.13;;;11.20;;
72974;SDS011;61166;54.228;37.632;2022-07-29T06:43:24;11.88;;;11.00;;
72974;SDS011;61166;54.228;37.632;2022-07-29T06:45:51;11.50;;;10.70;;
72974;SDS011;61166;54.228;37.632;2022-07-29T06:48:17;11.60;;;10.90;;
72974;SDS011;61166;54.228;37.632;2022-07-29T06:50:42;11.43;;;10.73;;
72974;SDS011;61166;54.228;37.632;2022-07-29T06:53:07;6.40;;;5.83;;
72974;SDS011;61166;54.228;37.632;2022-07-29T06:55:33;10.97;;;10.20;;
72974;SDS011;61166;54.228;37.632;2022-07-29T06:57:58;10.98;;;10.10;;
72974;SDS011;61166;54.228;37.632;2022-07-29T07:00:23;13.00;;;12.13;;
72974;SDS011;61166;54.228;37.632;2022-07-29T07:02:49;10.47;;;9.73;;
72974;SDS011;61166;54.228;37.632;2022-07-29T07:05:14;11.43;;;10.73;;
72974;SDS011;61166;54.228;37.632;2022-07-29T07:07:40;11.77;;;10.97;;
72974;SDS011;61166;54.228;37.632;2022-07-29T07:10:05;11.80;;;11.07;;
72974;SDS011;61166;54.228;37.632;2022-07-29T07:12:31;10.15;;;9.45;;
72974;SDS011;61166;54.228;37.632;2022-07-29T07:14:56;9.80;;;9.00;;
72974;SDS011;61166;54.228;37.632;2022-07-29T07:17:21;11.23;;;10.30;;
72974;SDS011;61166;54.228;37.632;2022-07-29T07:19:47;11.20;;;10.32;;
72974;SDS011;61166;54.228;37.632;2022-07-29T07:22:12;11.40;;;10.80;;
72974;SDS011;61166;54.228;37.632;2022-07-29T07:24:37;11.30;;;10.50;;
72974;SDS011;61166;54.228;37.632;2022-07-29T07:27:03;10.90;;;10.20;;
72974;SDS011;61166;54.228;37.632;2022-07-29T07:29:28;9.73;;;8.83;;
72974;SDS011;61166;54.228;37.632;2022-07-29T07:31:54;9.02;;;8.27;;
72974;SDS011;61166;54.228;37.632;2022-07-29T07:34:20;8.80;;;7.93;;
72974;SDS011;61166;54.228;37.632;2022-07-29T07:36:45;8.32;;;7.72;;
72974;SDS011;61166;54.228;37.632;2022-07-29T07:39:10;8.47;;;7.90;;
72974;SDS011;61166;54.228;37.632;2022-07-29T07:41:36;9.13;;;8.43;;
72974;SDS011;61166;54.228;37.632;2022-07-29T07:44:01;7.97;;;7.27;;
72974;SDS011;61166;54.228;37.632;2022-07-29T07:46:27;8.33;;;7.83;;
72974;SDS011;61166;54.228;37.632;2022-07-29T07:48:52;8.43;;;7.72;;
72974;SDS011;61166;54.228;37.632;2022-07-29T07:51:18;9.40;;;8.60;;
72974;SDS011;61166;54.228;37.632;2022-07-29T07:53:43;7.40;;;6.90;;
72974;SDS011;61166;54.228;37.632;2022-07-29T07:56:09;7.68;;;6.97;;
72974;SDS011;61166;54.228;37.632;2022-07-29T07:58:35;7.43;;;4.20;;
72974;SDS011;61166;54.228;37.632;2022-07-29T08:01:01;6.23;;;3.97;;
72974;SDS011;61166;54.228;37.632;2022-07-29T08:03:27;6.63;;;6.13;;
72974;SDS011;61166;54.228;37.632;2022-07-29T08:05:52;7.23;;;6.67;;
72974;SDS011;61166;54.228;37.632;2022-07-29T08:08:19;6.35;;;5.75;;
72974;SDS011;61166;54.228;37.632;2022-07-29T08:10:44;8.25;;;5.65;;
72974;SDS011;61166;54.228;37.632;2022-07-29T08:13:25;5.95;;;3.63;;
72974;SDS011;61166;54.228;37.632;2022-07-29T08:15:53;6.80;;;6.17;;
72974;SDS011;61166;54.228;37.632;2022-07-29T08:18:26;6.13;;;5.60;;
72974;SDS011;61166;54.228;37.632;2022-07-29T08:20:54;7.18;;;6.57;;
72974;SDS011;61166;54.228;37.632;2022-07-29T08:23:20;6.20;;;5.60;;
72974;SDS011;61166;54.228;37.632;2022-07-29T08:25:46;6.63;;;6.03;;
72974;SDS011;61166;54.228;37.632;2022-07-29T08:28:11;7.22;;;6.72;;
72974;SDS011;61166;54.228;37.632;2022-07-29T08:30:36;6.93;;;6.43;;
72974;SDS011;61166;54.228;37.632;2022-07-29T08:33:02;6.63;;;6.03;;
72974;SDS011;61166;54.228;37.632;2022-07-29T08:35:27;6.83;;;6.23;;
72974;SDS011;61166;54.228;37.632;2022-07-29T08:37:53;7.10;;;6.45;;
72974;SDS011;61166;54.228;37.632;2022-07-29T08:40:19;5.57;;;4.17;;
72974;SDS011;61166;54.228;37.632;2022-07-29T08:42:45;7.35;;;6.85;;
72974;SDS011;61166;54.228;37.632;2022-07-29T08:45:11;6.23;;;5.77;;
72974;SDS011;61166;54.228;37.632;2022-07-29T08:47:38;6.90;;;6.40;;
72974;SDS011;61166;54.228;37.632;2022-07-29T08:50:08;7.00;;;6.50;;
72974;SDS011;61166;54.228;37.632;2022-07-29T08:52:38;9.87;;;8.67;;
72974;SDS011;61166;54.228;37.632;2022-07-29T08:55:05;6.70;;;6.10;;
72974;SDS011;61166;54.228;37.632;2022-07-29T08:57:32;5.22;;;4.72;;
72974;SDS011;61166;54.228;37.632;2022-07-29T08:59:59;4.18;;;3.78;;
72974;SDS011;61166;54.228;37.632;2022-07-29T09:02:25;7.47;;;6.05;;
72974;SDS011;61166;54.228;37.632;2022-07-29T09:04:54;7.90;;;7.20;;
72974;SDS011;61166;54.228;37.632;2022-07-29T09:07:21;6.72;;;6.22;;
72974;SDS011;61166;54.228;37.632;2022-07-29T09:09:46;7.63;;;6.97;;
72974;SDS011;61166;54.228;37.632;2022-07-29T09:12:12;4.65;;;4.25;;
72974;SDS011;61166;54.228;37.632;2022-07-29T09:14:38;4.38;;;3.97;;
72974;SDS011;61166;54.228;37.632;2022-07-29T09:17:04;3.42;;;3.13;;
72974;SDS011;61166;54.228;37.632;2022-07-29T09:19:31;5.27;;;4.87;;
72974;SDS011;61166;54.228;37.632;2022-07-29T09:22:00;8.38;;;5.00;;
72974;SDS011;61166;54.228;37.632;2022-07-29T09:24:27;4.78;;;4.38;;
72974;SDS011;61166;54.228;37.632;2022-07-29T09:27:06;5.00;;;4.50;;
72974;SDS011;61166;54.228;37.632;2022-07-29T09:29:34;4.45;;;4.05;;
72974;SDS011;61166;54.228;37.632;2022-07-29T09:32:00;3.80;;;3.10;;
72974;SDS011;61166;54.228;37.632;2022-07-29T09:34:26;5.55;;;3.97;;
72974;SDS011;61166;54.228;37.632;2022-07-29T09:36:54;5.43;;;3.10;;
72974;SDS011;61166;54.228;37.632;2022-07-29T09:42:00;4.78;;;3.35;;
72974;SDS011;61166;54.228;37.632;2022-07-29T09:44:40;4.82;;;3.85;;
72974;SDS011;61166;54.228;37.632;2022-07-29T09:47:07;4.93;;;4.55;;
72974;SDS011;61166;54.228;37.632;2022-07-29T09:49:49;3.73;;;3.43;;
72974;SDS011;61166;54.228;37.632;2022-07-29T09:52:15;4.20;;;3.60;;
72974;SDS011;61166;54.228;37.632;2022-07-29T09:54:40;4.43;;;4.03;;
72974;SDS011;61166;54.228;37.632;2022-07-29T09:57:07;3.90;;;3.03;;
72974;SDS011;61166;54.228;37.632;2022-07-29T09:59:37;5.30;;;3.70;;
72974;SDS011;61166;54.228;37.632;2022-07-29T10:02:11;4.10;;;3.50;;
72974;SDS011;61166;54.228;37.632;2022-07-29T10:04:41;4.20;;;3.85;;
72974;SDS011;61166;54.228;37.632;2022-07-29T10:07:08;4.38;;;2.85;;
72974;SDS011;61166;54.228;37.632;2022-07-29T10:09:34;3.67;;;1.85;;
72974;SDS011;61166;54.228;37.632;2022-07-29T10:12:10;3.40;;;2.23;;
72974;SDS011;61166;54.228;37.632;2022-07-29T10:14:39;3.72;;;2.25;;
72974;SDS011;61166;54.228;37.632;2022-07-29T10:17:07;3.55;;;2.30;;
72974;SDS011;61166;54.228;37.632;2022-07-29T10:19:34;4.43;;;1.70;;
72974;SDS011;61166;54.228;37.632;2022-07-29T10:22:02;3.33;;;2.08;;
72974;SDS011;61166;54.228;37.632;2022-07-29T10:24:31;3.40;;;2.00;;
72974;SDS011;61166;54.228;37.632;2022-07-29T10:26:58;3.35;;;2.33;;
72974;SDS011;61166;54.228;37.632;2022-07-29T10:29:26;4.32;;;2.10;;
72974;SDS011;61166;54.228;37.632;2022-07-29T10:31:58;3.37;;;2.43;;
72974;SDS011;61166;54.228;37.632;2022-07-29T10:43:28;3.70;;;2.03;;
72974;SDS011;61166;54.228;37.632;2022-07-29T10:45:59;4.27;;;1.93;;
72974;SDS011;61166;54.228;37.632;2022-07-29T10:48:25;2.85;;;1.70;;
72974;SDS011;61166;54.228;37.632;2022-07-29T10:50:51;4.72;;;2.03;;
72974;SDS011;61166;54.228;37.632;2022-07-29T10:53:23;4.35;;;1.80;;
72974;SDS011;61166;54.228;37.632;2022-07-29T10:55:50;2.53;;;1.53;;
72974;SDS011;61166;54.228;37.632;2022-07-29T11:00:42;2.80;;;2.00;;
72974;SDS011;61166;54.228;37.632;2022-07-29T11:03:08;5.70;;;2.55;;
72974;SDS011;61166;54.228;37.632;2022-07-29T11:05:53;6.53;;;2.75;;
72974;SDS011;61166;54.228;37.632;2022-07-29T11:08:20;4.67;;;1.60;;
72974;SDS011;61166;54.228;37.632;2022-07-29T11:10:48;4.68;;;1.75;;
72974;SDS011;61166;54.228;37.632;2022-07-29T11:16:19;4.88;;;1.85;;
72974;SDS011;61166;54.228;37.632;2022-07-29T11:21:38;3.53;;;2.30;;
72974;SDS011;61166;54.228;37.632;2022-07-29T11:24:11;6.70;;;2.38;;
72974;SDS011;61166;54.228;37.632;2022-07-29T11:26:38;5.05;;;1.70;;
72974;SDS011;61166;54.228;37.632;2022-07-29T11:29:13;3.50;;;2.40;;
72974;SDS011;61166;54.228;37.632;2022-07-29T11:31:44;4.15;;;2.67;;
72974;SDS011;61166;54.228;37.632;2022-07-29T11:34:31;3.70;;;1.60;;
72974;SDS011;61166;54.228;37.632;2022-07-29T11:40:14;4.50;;;1.93;;
72974;SDS011;61166;54.228;37.632;2022-07-29T11:45:16;3.27;;;2.10;;
72974;SDS011;61166;54.228;37.632;2022-07-29T11:47:47;3.50;;;2.42;;
72974;SDS011;61166;54.228;37.632;2022-07-29T11:50:16;6.55;;;1.92;;
72974;SDS011;61166;54.228;37.632;2022-07-29T11:52:44;3.45;;;1.70;;
72974;SDS011;61166;54.228;37.632;2022-07-29T11:55:13;5.55;;;1.70;;
72974;SDS011;61166;54.228;37.632;2022-07-29T11:57:47;3.17;;;1.90;;
72974;SDS011;61166;54.228;37.632;2022-07-29T12:00:33;3.58;;;2.05;;
72974;SDS011;61166;54.228;37.632;2022-07-29T12:03:04;7.80;;;2.20;;
72974;SDS011;61166;54.228;37.632;2022-07-29T12:08:09;4.28;;;2.05;;
72974;SDS011;61166;54.228;37.632;2022-07-29T12:10:47;4.43;;;2.30;;
72974;SDS011;61166;54.228;37.632;2022-07-29T12:13:14;4.85;;;2.30;;
72974;SDS011;61166;54.228;37.632;2022-07-29T12:15:41;2.65;;;2.00;;
72974;SDS011;61166;54.228;37.632;2022-07-29T12:20:42;5.22;;;1.73;;
72974;SDS011;61166;54.228;37.632;2022-07-29T12:23:09;3.20;;;1.70;;
72974;SDS011;61166;54.228;37.632;2022-07-29T12:25:37;2.58;;;1.27;;
72974;SDS011;61166;54.228;37.632;2022-07-29T12:28:06;3.80;;;1.95;;
72974;SDS011;61166;54.228;37.632;2022-07-29T12:30:37;3.97;;;1.88;;
72974;SDS011;61166;54.228;37.632;2022-07-29T12:33:11;3.13;;;1.92;;
72974;SDS011;61166;54.228;37.632;2022-07-29T12:35:37;2.77;;;2.27;;
72974;SDS011;61166;54.228;37.632;2022-07-29T12:38:03;2.78;;;1.92;;
72974;SDS011;61166;54.228;37.632;2022-07-29T12:40:29;3.35;;;1.85;;
72974;SDS011;61166;54.228;37.632;2022-07-29T12:45:34;3.17;;;1.63;;
72974;SDS011;61166;54.228;37.632;2022-07-29T12:48:00;3.80;;;1.40;;
72974;SDS011;61166;54.228;37.632;2022-07-29T12:50:25;3.67;;;1.60;;
72974;SDS011;61166;54.228;37.632;2022-07-29T12:52:51;3.50;;;1.70;;
72974;SDS011;61166;54.228;37.632;2022-07-29T12:55:37;4.63;;;1.93;;
72974;SDS011;61166;54.228;37.632;2022-07-29T12:58:14;9.30;;;5.40;;
72974;SDS011;61166;54.228;37.632;2022-07-29T13:01:08;4.47;;;1.88;;
72974;SDS011;61166;54.228;37.632;2022-07-29T13:03:46;2.88;;;1.95;;
72974;SDS011;61166;54.228;37.632;2022-07-29T13:06:31;3.38;;;1.65;;
72974;SDS011;61166;54.228;37.632;2022-07-29T13:14:05;6.38;;;1.77;;
72974;SDS011;61166;54.228;37.632;2022-07-29T13:16:32;7.32;;;1.90;;
72974;SDS011;61166;54.228;37.632;2022-07-29T13:19:07;3.37;;;1.63;;
72974;SDS011;61166;54.228;37.632;2022-07-29T13:21:34;3.80;;;1.95;;
72974;SDS011;61166;54.228;37.632;2022-07-29T13:24:00;3.10;;;1.90;;
72974;SDS011;61166;54.228;37.632;2022-07-29T13:26:26;4.80;;;1.90;;
72974;SDS011;61166;54.228;37.632;2022-07-29T13:28:53;4.75;;;2.00;;
72974;SDS011;61166;54.228;37.632;2022-07-29T13:31:19;4.73;;;2.10;;
72974;SDS011;61166;54.228;37.632;2022-07-29T13:33:45;2.78;;;2.03;;
72974;SDS011;61166;54.228;37.632;2022-07-29T13:36:10;5.53;;;1.80;;
72974;SDS011;61166;54.228;37.632;2022-07-29T13:38:36;4.97;;;2.23;;
72974;SDS011;61166;54.228;37.632;2022-07-29T13:41:01;4.00;;;2.03;;
72974;SDS011;61166;54.228;37.632;2022-07-29T13:43:27;4.68;;;2.42;;
72974;SDS011;61166;54.228;37.632;2022-07-29T13:45:52;3.30;;;1.90;;
72974;SDS011;61166;54.228;37.632;2022-07-29T13:48:17;2.57;;;1.73;;
72974;SDS011;61166;54.228;37.632;2022-07-29T13:50:43;2.50;;;1.77;;
72974;SDS011;61166;54.228;37.632;2022-07-29T13:53:09;4.47;;;2.03;;
72974;SDS011;61166;54.228;37.632;2022-07-29T13:55:34;4.20;;;1.90;;
72974;SDS011;61166;54.228;37.632;2022-07-29T13:57:59;3.77;;;1.77;;
72974;SDS011;61166;54.228;37.632;2022-07-29T14:00:25;3.47;;;1.80;;
72974;SDS011;61166;54.228;37.632;2022-07-29T14:02:51;3.33;;;1.90;;
72974;SDS011;61166;54.228;37.632;2022-07-29T14:05:17;3.35;;;1.50;;
72974;SDS011;61166;54.228;37.632;2022-07-29T14:07:42;3.63;;;1.63;;
72974;SDS011;61166;54.228;37.632;2022-07-29T14:10:08;3.77;;;1.80;;
72974;SDS011;61166;54.228;37.632;2022-07-29T14:12:33;4.83;;;1.60;;
72974;SDS011;61166;54.228;37.632;2022-07-29T14:14:59;3.78;;;1.92;;
72974;SDS011;61166;54.228;37.632;2022-07-29T14:17:24;4.17;;;1.67;;
72974;SDS011;61166;54.228;37.632;2022-07-29T14:19:50;3.93;;;1.93;;
72974;SDS011;61166;54.228;37.632;2022-07-29T14:22:15;4.63;;;1.80;;
72974;SDS011;61166;54.228;37.632;2022-07-29T14:24:43;2.78;;;1.60;;
72974;SDS011;61166;54.228;37.632;2022-07-29T14:27:08;3.47;;;1.70;;
72974;SDS011;61166;54.228;37.632;2022-07-29T14:29:34;2.90;;;1.50;;
72974;SDS011;61166;54.228;37.632;2022-07-29T14:32:00;3.50;;;1.67;;
72974;SDS011;61166;54.228;37.632;2022-07-29T14:34:25;4.93;;;1.90;;
72974;SDS011;61166;54.228;37.632;2022-07-29T14:36:51;5.20;;;1.90;;
72974;SDS011;61166;54.228;37.632;2022-07-29T14:39:16;5.27;;;2.13;;
72974;SDS011;61166;54.228;37.632;2022-07-29T14:41:42;3.93;;;1.60;;
72974;SDS011;61166;54.228;37.632;2022-07-29T14:44:08;8.20;;;2.60;;
72974;SDS011;61166;54.228;37.632;2022-07-29T14:46:34;4.97;;;2.00;;
72974;SDS011;61166;54.228;37.632;2022-07-29T14:48:59;5.77;;;1.97;;
72974;SDS011;61166;54.228;37.632;2022-07-29T14:51:25;8.07;;;3.17;;
72974;SDS011;61166;54.228;37.632;2022-07-29T14:53:50;6.50;;;2.45;;
72974;SDS011;61166;54.228;37.632;2022-07-29T14:56:16;5.70;;;2.50;;
72974;SDS011;61166;54.228;37.632;2022-07-29T14:58:41;6.50;;;2.20;;
72974;SDS011;61166;54.228;37.632;2022-07-29T15:01:07;3.93;;;2.20;;
72974;SDS011;61166;54.228;37.632;2022-07-29T15:03:32;4.23;;;2.20;;
72974;SDS011;61166;54.228;37.632;2022-07-29T15:05:58;3.63;;;2.20;;
72974;SDS011;61166;54.228;37.632;2022-07-29T15:08:23;7.27;;;2.57;;
72974;SDS011;61166;54.228;37.632;2022-07-29T15:10:50;8.18;;;2.25;;
72974;SDS011;61166;54.228;37.632;2022-07-29T15:13:15;6.30;;;2.30;;
72974;SDS011;61166;54.228;37.632;2022-07-29T15:15:41;4.88;;;2.40;;
72974;SDS011;61166;54.228;37.632;2022-07-29T15:18:06;4.37;;;1.93;;
72974;SDS011;61166;54.228;37.632;2022-07-29T15:20:32;5.20;;;2.20;;